sensor_id;sensor_type;location;lat;lon;timestamp;pressure;altitude;pressure_sealevel;temperature
15544;BMP180;7873;52.230;12.856;2022-12-18T00:02:18;102425.91;;;25.70
15544;BMP180;7873;52.230;12.856;2022-12-18T00:04:45;102432.44;;;25.67
15544;BMP180;7873;52.230;12.856;2022-12-18T00:07:12;102423.09;;;25.62
15544;BMP180;7873;52.230;12.856;2022-12-18T00:09:38;102430.50;;;25.60
15544;BMP180;7873;52.230;12.856;2022-12-18T00:12:05;102422.91;;;25.56
15544;BMP180;7873;52.230;12.856;2022-12-18T00:14:32;102420.66;;;25.51
15544;BMP180;7873;52.230;12.856;2022-12-18T00:17:00;102421.09;;;25.47
15544;BMP180;7873;52.230;12.856;2022-12-18T00:19:28;102424.97;;;25.44
15544;BMP180;7873;52.230;12.856;2022-12-18T00:21:54;102420.84;;;25.40
15544;BMP180;7873;52.230;12.856;2022-12-18T00:24:21;102422.84;;;25.38
15544;BMP180;7873;52.230;12.856;2022-12-18T00:26:48;102425.03;;;25.35
15544;BMP180;7873;52.230;12.856;2022-12-18T00:29:14;102426.34;;;25.31
15544;BMP180;7873;52.230;12.856;2022-12-18T00:31:42;102415.00;;;25.27
15544;BMP180;7873;52.230;12.856;2022-12-18T00:34:11;102426.09;;;25.24
15544;BMP180;7873;52.230;12.856;2022-12-18T00:36:39;102424.69;;;25.20
15544;BMP180;7873;52.230;12.856;2022-12-18T00:39:05;102428.53;;;25.18
15544;BMP180;7873;52.230;12.856;2022-12-18T00:41:32;102431.34;;;25.16
15544;BMP180;7873;52.230;12.856;2022-12-18T00:44:18;102427.25;;;25.12
15544;BMP180;7873;52.230;12.856;2022-12-18T00:46:45;102438.34;;;25.09
15544;BMP180;7873;52.230;12.856;2022-12-18T00:49:14;102425.03;;;25.08
15544;BMP180;7873;52.230;12.856;2022-12-18T00:51:41;102436.06;;;25.05
15544;BMP180;7873;52.230;12.856;2022-12-18T00:54:08;102438.25;;;25.01
15544;BMP180;7873;52.230;12.856;2022-12-18T00:56:35;102438.38;;;25.00
15544;BMP180;7873;52.230;12.856;2022-12-18T00:59:02;102438.84;;;24.95
15544;BMP180;7873;52.230;12.856;2022-12-18T01:01:29;102442.69;;;24.93
15544;BMP180;7873;52.230;12.856;2022-12-18T01:03:56;102449.06;;;24.92
15544;BMP180;7873;52.230;12.856;2022-12-18T01:06:24;102450.38;;;24.88
15544;BMP180;7873;52.230;12.856;2022-12-18T01:08:50;102452.19;;;24.87
15544;BMP180;7873;52.230;12.856;2022-12-18T01:11:19;102444.41;;;24.84
15544;BMP180;7873;52.230;12.856;2022-12-18T01:13:46;102442.72;;;24.83
15544;BMP180;7873;52.230;12.856;2022-12-18T01:16:13;102443.84;;;24.81
15544;BMP180;7873;52.230;12.856;2022-12-18T01:18:41;102446.72;;;24.79
15544;BMP180;7873;52.230;12.856;2022-12-18T01:21:08;102448.69;;;24.77
15544;BMP180;7873;52.230;12.856;2022-12-18T01:23:37;102440.75;;;24.76
15544;BMP180;7873;52.230;12.856;2022-12-18T01:26:05;102452.69;;;24.73
15544;BMP180;7873;52.230;12.856;2022-12-18T01:28:32;102454.66;;;24.71
15544;BMP180;7873;52.230;12.856;2022-12-18T01:31:10;102464.72;;;24.69
15544;BMP180;7873;52.230;12.856;2022-12-18T01:33:36;102464.03;;;24.67
15544;BMP180;7873;52.230;12.856;2022-12-18T01:36:03;102465.03;;;24.66
15544;BMP180;7873;52.230;12.856;2022-12-18T01:38:30;102470.59;;;24.65
15544;BMP180;7873;52.230;12.856;2022-12-18T01:40:58;102467.19;;;24.63
15544;BMP180;7873;52.230;12.856;2022-12-18T01:43:41;102476.41;;;24.60
15544;BMP180;7873;52.230;12.856;2022-12-18T01:46:08;102474.00;;;24.57
15544;BMP180;7873;52.230;12.856;2022-12-18T01:48:35;102463.34;;;24.56
15544;BMP180;7873;52.230;12.856;2022-12-18T01:51:02;102474.28;;;24.54
15544;BMP180;7873;52.230;12.856;2022-12-18T01:53:30;102464.53;;;24.53
15544;BMP180;7873;52.230;12.856;2022-12-18T01:55:59;102465.66;;;24.51
15544;BMP180;7873;52.230;12.856;2022-12-18T01:58:30;102472.72;;;24.52
15544;BMP180;7873;52.230;12.856;2022-12-18T02:00:59;102475.56;;;24.50
15544;BMP180;7873;52.230;12.856;2022-12-18T02:03:25;102474.84;;;24.48
15544;BMP180;7873;52.230;12.856;2022-12-18T02:05:59;102462.50;;;24.46
15544;BMP180;7873;52.230;12.856;2022-12-18T02:08:31;102460.94;;;24.43
15544;BMP180;7873;52.230;12.856;2022-12-18T02:11:05;102463.09;;;24.40
15544;BMP180;7873;52.230;12.856;2022-12-18T02:13:40;102465.94;;;24.38
15544;BMP180;7873;52.230;12.856;2022-12-18T02:16:17;102468.78;;;24.37
15544;BMP180;7873;52.230;12.856;2022-12-18T02:18:48;102474.28;;;24.35
15544;BMP180;7873;52.230;12.856;2022-12-18T02:21:24;102481.81;;;24.32
15544;BMP180;7873;52.230;12.856;2022-12-18T02:23:56;102488.34;;;24.29
15544;BMP180;7873;52.230;12.856;2022-12-18T02:26:28;102482.09;;;24.29
15544;BMP180;7873;52.230;12.856;2022-12-18T02:28:59;102495.72;;;24.27
15544;BMP180;7873;52.230;12.856;2022-12-18T02:31:28;102491.59;;;24.23
15544;BMP180;7873;52.230;12.856;2022-12-18T02:33:58;102491.59;;;24.23
15544;BMP180;7873;52.230;12.856;2022-12-18T02:36:27;102488.19;;;24.21
15544;BMP180;7873;52.230;12.856;2022-12-18T02:38:56;102494.72;;;24.19
15544;BMP180;7873;52.230;12.856;2022-12-18T02:41:26;102498.41;;;24.18
15544;BMP180;7873;52.230;12.856;2022-12-18T02:43:55;102495.84;;;24.16
15544;BMP180;7873;52.230;12.856;2022-12-18T02:46:29;102497.84;;;24.14
15544;BMP180;7873;52.230;12.856;2022-12-18T02:49:04;102498.13;;;24.11
15544;BMP180;7873;52.230;12.856;2022-12-18T02:51:39;102496.44;;;24.10
15544;BMP180;7873;52.230;12.856;2022-12-18T02:54:13;102493.03;;;24.08
15544;BMP180;7873;52.230;12.856;2022-12-18T02:56:48;102494.03;;;24.07
15544;BMP180;7873;52.230;12.856;2022-12-18T02:59:19;102496.84;;;24.06
15544;BMP180;7873;52.230;12.856;2022-12-18T03:01:51;102504.38;;;24.02
15544;BMP180;7873;52.230;12.856;2022-12-18T03:04:22;102497.25;;;24.01
15544;BMP180;7873;52.230;12.856;2022-12-18T03:06:53;102503.63;;;24.00
15544;BMP180;7873;52.230;12.856;2022-12-18T03:09:23;102492.16;;;23.98
15544;BMP180;7873;52.230;12.856;2022-12-18T03:11:55;102496.72;;;23.98
15544;BMP180;7873;52.230;12.856;2022-12-18T03:14:50;102497.81;;;23.95
15544;BMP180;7873;52.230;12.856;2022-12-18T03:17:20;102494.16;;;23.96
15544;BMP180;7873;52.230;12.856;2022-12-18T03:19:49;102491.63;;;23.95
15544;BMP180;7873;52.230;12.856;2022-12-18T03:22:18;102484.53;;;23.94
15544;BMP180;7873;52.230;12.856;2022-12-18T03:24:46;102476.59;;;23.92
15544;BMP180;7873;52.230;12.856;2022-12-18T03:27:18;102485.53;;;23.93
15544;BMP180;7873;52.230;12.856;2022-12-18T03:29:48;102484.66;;;23.92
15544;BMP180;7873;52.230;12.856;2022-12-18T03:32:20;102476.88;;;23.89
15544;BMP180;7873;52.230;12.856;2022-12-18T03:34:50;102486.78;;;23.89
15544;BMP180;7873;52.230;12.856;2022-12-18T03:37:18;102484.25;;;23.87
15544;BMP180;7873;52.230;12.856;2022-12-18T03:39:45;102487.91;;;23.86
15544;BMP180;7873;52.230;12.856;2022-12-18T03:42:17;102489.63;;;23.87
15544;BMP180;7873;52.230;12.856;2022-12-18T03:44:53;102497.81;;;23.86
15544;BMP180;7873;52.230;12.856;2022-12-18T03:47:26;102500.66;;;23.84
15544;BMP180;7873;52.230;12.856;2022-12-18T03:49:57;102502.50;;;23.84
15544;BMP180;7873;52.230;12.856;2022-12-18T03:52:28;102500.78;;;23.83
15544;BMP180;7873;52.230;12.856;2022-12-18T03:54:58;102509.03;;;23.82
15544;BMP180;7873;52.230;12.856;2022-12-18T03:57:29;102498.25;;;23.82
15544;BMP180;7873;52.230;12.856;2022-12-18T04:00:00;102501.91;;;23.80
15544;BMP180;7873;52.230;12.856;2022-12-18T04:02:28;102500.06;;;23.81
15544;BMP180;7873;52.230;12.856;2022-12-18T04:04:58;102513.50;;;23.81
15544;BMP180;7873;52.230;12.856;2022-12-18T04:07:26;102517.94;;;23.82
15544;BMP180;7873;52.230;12.856;2022-12-18T04:09:56;102513.50;;;23.81
15544;BMP180;7873;52.230;12.856;2022-12-18T04:12:24;102510.81;;;23.81
15544;BMP180;7873;52.230;12.856;2022-12-18T04:14:52;102535.94;;;23.82
15544;BMP180;7873;52.230;12.856;2022-12-18T04:17:18;102540.56;;;23.79
15544;BMP180;7873;52.230;12.856;2022-12-18T04:19:45;102532.63;;;23.78
15544;BMP180;7873;52.230;12.856;2022-12-18T04:22:12;102536.44;;;23.75
15544;BMP180;7873;52.230;12.856;2022-12-18T04:24:38;102532.91;;;23.75
15544;BMP180;7873;52.230;12.856;2022-12-18T04:27:05;102536.72;;;23.73
15544;BMP180;7873;52.230;12.856;2022-12-18T04:29:32;102531.34;;;23.73
15544;BMP180;7873;52.230;12.856;2022-12-18T04:32:00;102531.63;;;23.70
15544;BMP180;7873;52.230;12.856;2022-12-18T04:34:27;102525.53;;;23.68
15544;BMP180;7873;52.230;12.856;2022-12-18T04:36:53;102519.44;;;23.66
15544;BMP180;7873;52.230;12.856;2022-12-18T04:39:20;102526.63;;;23.65
15544;BMP180;7873;52.230;12.856;2022-12-18T04:41:47;102521.53;;;23.62
15544;BMP180;7873;52.230;12.856;2022-12-18T04:44:13;102517.16;;;23.61
15544;BMP180;7873;52.230;12.856;2022-12-18T04:46:40;102512.75;;;23.60
15544;BMP180;7873;52.230;12.856;2022-12-18T04:49:08;102516.31;;;23.61
15544;BMP180;7873;52.230;12.856;2022-12-18T04:51:35;102510.22;;;23.59
15544;BMP180;7873;52.230;12.856;2022-12-18T04:54:02;102519.28;;;23.58
15544;BMP180;7873;52.230;12.856;2022-12-18T04:56:31;102527.47;;;23.56
15544;BMP180;7873;52.230;12.856;2022-12-18T04:58:57;102531.03;;;23.57
15544;BMP180;7873;52.230;12.856;2022-12-18T05:01:24;102529.34;;;23.56
15544;BMP180;7873;52.230;12.856;2022-12-18T05:03:51;102539.22;;;23.55
15544;BMP180;7873;52.230;12.856;2022-12-18T05:06:19;102541.03;;;23.55
15544;BMP180;7873;52.230;12.856;2022-12-18T05:08:46;102543.88;;;23.53
15544;BMP180;7873;52.230;12.856;2022-12-18T05:11:14;102551.09;;;23.53
15544;BMP180;7873;52.230;12.856;2022-12-18T05:13:42;102556.47;;;23.53
15544;BMP180;7873;52.230;12.856;2022-12-18T05:16:09;102551.25;;;23.51
15544;BMP180;7873;52.230;12.856;2022-12-18T05:18:36;102547.69;;;23.51
15544;BMP180;7873;52.230;12.856;2022-12-18T05:21:04;102543.47;;;23.48
15544;BMP180;7873;52.230;12.856;2022-12-18T05:23:32;102561.41;;;23.48
15544;BMP180;7873;52.230;12.856;2022-12-18T05:26:00;102561.41;;;23.48
15544;BMP180;7873;52.230;12.856;2022-12-18T05:28:29;102558.03;;;23.46
15544;BMP180;7873;52.230;12.856;2022-12-18T05:30:58;102554.50;;;23.45
15544;BMP180;7873;52.230;12.856;2022-12-18T05:33:26;102555.47;;;23.44
15544;BMP180;7873;52.230;12.856;2022-12-18T05:35:54;102553.75;;;23.43
15544;BMP180;7873;52.230;12.856;2022-12-18T05:38:22;102561.81;;;23.43
15544;BMP180;7873;52.230;12.856;2022-12-18T05:40:51;102563.66;;;23.43
15544;BMP180;7873;52.230;12.856;2022-12-18T05:43:19;102571.03;;;23.41
15544;BMP180;7873;52.230;12.856;2022-12-18T05:45:47;102560.25;;;23.41
15544;BMP180;7873;52.230;12.856;2022-12-18T05:48:14;102562.97;;;23.41
15544;BMP180;7873;52.230;12.856;2022-12-18T05:50:43;102556.88;;;23.39
15544;BMP180;7873;52.230;12.856;2022-12-18T05:53:10;102561.25;;;23.40
15544;BMP180;7873;52.230;12.856;2022-12-18T05:55:39;102572.28;;;23.37
15544;BMP180;7873;52.230;12.856;2022-12-18T05:58:08;102582.19;;;23.36
15544;BMP180;7873;52.230;12.856;2022-12-18T06:00:36;102580.34;;;23.37
15544;BMP180;7873;52.230;12.856;2022-12-18T06:03:05;102573.28;;;23.36
15544;BMP180;7873;52.230;12.856;2022-12-18T06:05:34;102571.41;;;23.36
15544;BMP180;7873;52.230;12.856;2022-12-18T06:08:01;102580.63;;;23.34
15544;BMP180;7873;52.230;12.856;2022-12-18T06:10:28;102575.38;;;23.32
15544;BMP180;7873;52.230;12.856;2022-12-18T06:12:55;102571.81;;;23.32
15544;BMP180;7873;52.230;12.856;2022-12-18T06:15:23;102568.41;;;23.30
15544;BMP180;7873;52.230;12.856;2022-12-18T06:17:50;102565.72;;;23.30
15544;BMP180;7873;52.230;12.856;2022-12-18T06:20:16;102570.53;;;23.26
15544;BMP180;7873;52.230;12.856;2022-12-18T06:22:43;102579.59;;;23.25
15544;BMP180;7873;52.230;12.856;2022-12-18T06:25:10;102583.28;;;23.24
15544;BMP180;7873;52.230;12.856;2022-12-18T06:27:37;102583.28;;;23.24
15544;BMP180;7873;52.230;12.856;2022-12-18T06:30:04;102585.97;;;23.24
15544;BMP180;7873;52.230;12.856;2022-12-18T06:32:33;102584.09;;;23.25
15544;BMP180;7873;52.230;12.856;2022-12-18T06:34:59;102588.66;;;23.24
15544;BMP180;7873;52.230;12.856;2022-12-18T06:37:26;102588.66;;;23.24
15544;BMP180;7873;52.230;12.856;2022-12-18T06:39:53;102595.84;;;23.24
15544;BMP180;7873;52.230;12.856;2022-12-18T06:42:21;102601.22;;;23.24
15544;BMP180;7873;52.230;12.856;2022-12-18T06:44:48;102611.97;;;23.24
15544;BMP180;7873;52.230;12.856;2022-12-18T06:47:15;102611.13;;;23.23
15544;BMP180;7873;52.230;12.856;2022-12-18T06:49:43;102611.97;;;23.24
15544;BMP180;7873;52.230;12.856;2022-12-18T06:52:09;102619.06;;;23.25
15544;BMP180;7873;52.230;12.856;2022-12-18T06:54:36;102614.66;;;23.24
15544;BMP180;7873;52.230;12.856;2022-12-18T06:57:03;102607.75;;;23.21
15544;BMP180;7873;52.230;12.856;2022-12-18T06:59:29;102624.69;;;23.22
15544;BMP180;7873;52.230;12.856;2022-12-18T07:01:56;102624.69;;;23.22
15544;BMP180;7873;52.230;12.856;2022-12-18T07:04:27;102627.13;;;23.25
15544;BMP180;7873;52.230;12.856;2022-12-18T07:06:55;102626.00;;;23.27
15544;BMP180;7873;52.230;12.856;2022-12-18T07:09:22;102618.78;;;23.28
15544;BMP180;7873;52.230;12.856;2022-12-18T07:11:49;102611.19;;;23.33
15544;BMP180;7873;52.230;12.856;2022-12-18T07:14:16;102619.09;;;23.34
15544;BMP180;7873;52.230;12.856;2022-12-18T07:16:42;102617.28;;;23.35
15544;BMP180;7873;52.230;12.856;2022-12-18T07:19:09;102618.00;;;23.37
15544;BMP180;7873;52.230;12.856;2022-12-18T07:21:36;102605.53;;;23.36
15544;BMP180;7873;52.230;12.856;2022-12-18T07:24:05;102603.69;;;23.36
15544;BMP180;7873;52.230;12.856;2022-12-18T07:26:32;102593.47;;;23.30
15544;BMP180;7873;52.230;12.856;2022-12-18T07:28:58;102596.56;;;23.26
15544;BMP180;7873;52.230;12.856;2022-12-18T07:31:25;102591.34;;;23.24
15544;BMP180;7873;52.230;12.856;2022-12-18T07:33:52;102592.06;;;23.26
15544;BMP180;7873;52.230;12.856;2022-12-18T07:36:19;102593.88;;;23.26
15544;BMP180;7873;52.230;12.856;2022-12-18T07:38:47;102598.41;;;23.25
15544;BMP180;7873;52.230;12.856;2022-12-18T07:41:15;102594.75;;;23.26
15544;BMP180;7873;52.230;12.856;2022-12-18T07:43:44;102601.19;;;23.44
15544;BMP180;7873;52.230;12.856;2022-12-18T07:46:12;102601.13;;;23.65
15544;BMP180;7873;52.230;12.856;2022-12-18T07:48:40;102609.41;;;23.82
15544;BMP180;7873;52.230;12.856;2022-12-18T07:51:07;102620.66;;;23.96
15544;BMP180;7873;52.230;12.856;2022-12-18T07:53:35;102622.97;;;24.10
15544;BMP180;7873;52.230;12.856;2022-12-18T07:56:04;102621.81;;;24.22
15544;BMP180;7873;52.230;12.856;2022-12-18T07:58:34;102619.72;;;24.35
15544;BMP180;7873;52.230;12.856;2022-12-18T08:01:02;102623.25;;;24.45
15544;BMP180;7873;52.230;12.856;2022-12-18T08:03:29;102630.38;;;24.56
15544;BMP180;7873;52.230;12.856;2022-12-18T08:05:58;102634.06;;;24.64
15544;BMP180;7873;52.230;12.856;2022-12-18T08:08:25;102638.75;;;24.72
15544;BMP180;7873;52.230;12.856;2022-12-18T08:10:52;102647.44;;;24.75
15544;BMP180;7873;52.230;12.856;2022-12-18T08:13:18;102645.28;;;24.69
15544;BMP180;7873;52.230;12.856;2022-12-18T08:15:48;102641.75;;;24.59
15544;BMP180;7873;52.230;12.856;2022-12-18T08:18:21;102638.63;;;24.54
15544;BMP180;7873;52.230;12.856;2022-12-18T08:20:47;102633.09;;;24.56
15544;BMP180;7873;52.230;12.856;2022-12-18T08:23:14;102636.47;;;24.58
15544;BMP180;7873;52.230;12.856;2022-12-18T08:25:41;102640.88;;;24.59
15544;BMP180;7873;52.230;12.856;2022-12-18T08:28:07;102650.69;;;24.60
15544;BMP180;7873;52.230;12.856;2022-12-18T08:30:35;102653.34;;;24.69
15544;BMP180;7873;52.230;12.856;2022-12-18T08:33:03;102653.09;;;24.72
15544;BMP180;7873;52.230;12.856;2022-12-18T08:35:30;102660.44;;;24.80
15544;BMP180;7873;52.230;12.856;2022-12-18T08:37:56;102653.66;;;24.85
15544;BMP180;7873;52.230;12.856;2022-12-18T08:40:23;102658.47;;;24.91
15544;BMP180;7873;52.230;12.856;2022-12-18T08:42:49;102668.41;;;25.00
15544;BMP180;7873;52.230;12.856;2022-12-18T08:45:31;102678.88;;;25.13
15544;BMP180;7873;52.230;12.856;2022-12-18T08:47:59;102681.91;;;25.19
15544;BMP180;7873;52.230;12.856;2022-12-18T08:50:27;102690.53;;;25.23
15544;BMP180;7873;52.230;12.856;2022-12-18T08:52:55;102688.69;;;25.23
15544;BMP180;7873;52.230;12.856;2022-12-18T08:55:23;102692.19;;;25.14
15544;BMP180;7873;52.230;12.856;2022-12-18T08:57:50;102678.72;;;25.14
15544;BMP180;7873;52.230;12.856;2022-12-18T09:00:17;102672.09;;;25.18
15544;BMP180;7873;52.230;12.856;2022-12-18T09:02:44;102679.91;;;25.21
15544;BMP180;7873;52.230;12.856;2022-12-18T09:05:14;102688.13;;;25.20
15544;BMP180;7873;52.230;12.856;2022-12-18T09:07:45;102679.72;;;25.13
15544;BMP180;7873;52.230;12.856;2022-12-18T09:10:18;102670.94;;;25.11
15544;BMP180;7873;52.230;12.856;2022-12-18T09:12:46;102670.09;;;25.20
15544;BMP180;7873;52.230;12.856;2022-12-18T09:15:16;102678.88;;;25.32
15544;BMP180;7873;52.230;12.856;2022-12-18T09:17:44;102680.59;;;25.33
15544;BMP180;7873;52.230;12.856;2022-12-18T09:20:11;102684.41;;;25.40
15544;BMP180;7873;52.230;12.856;2022-12-18T09:22:38;102680.81;;;25.49
15544;BMP180;7873;52.230;12.856;2022-12-18T09:25:06;102680.34;;;25.62
15544;BMP180;7873;52.230;12.856;2022-12-18T09:27:35;102675.03;;;25.70
15544;BMP180;7873;52.230;12.856;2022-12-18T09:30:04;102662.69;;;25.77
15544;BMP180;7873;52.230;12.856;2022-12-18T09:32:34;102660.13;;;25.76
15544;BMP180;7873;52.230;12.856;2022-12-18T09:35:05;102667.06;;;25.88
15544;BMP180;7873;52.230;12.856;2022-12-18T09:37:33;102661.66;;;25.88
15544;BMP180;7873;52.230;12.856;2022-12-18T09:40:02;102656.41;;;25.86
15544;BMP180;7873;52.230;12.856;2022-12-18T09:42:31;102660.19;;;25.93
15544;BMP180;7873;52.230;12.856;2022-12-18T09:45:00;102649.31;;;25.85
15544;BMP180;7873;52.230;12.856;2022-12-18T09:47:30;102638.06;;;25.90
15544;BMP180;7873;52.230;12.856;2022-12-18T09:50:02;102637.38;;;25.88
15544;BMP180;7873;52.230;12.856;2022-12-18T09:52:35;102645.56;;;25.96
15544;BMP180;7873;52.230;12.856;2022-12-18T09:55:15;102636.28;;;25.98
15544;BMP180;7873;52.230;12.856;2022-12-18T09:57:52;102627.66;;;25.95
15544;BMP180;7873;52.230;12.856;2022-12-18T10:00:22;102632.94;;;25.87
15544;BMP180;7873;52.230;12.856;2022-12-18T10:02:52;102649.22;;;25.68
15544;BMP180;7873;52.230;12.856;2022-12-18T10:05:30;102636.50;;;25.51
15544;BMP180;7873;52.230;12.856;2022-12-18T10:08:02;102633.97;;;25.40
15544;BMP180;7873;52.230;12.856;2022-12-18T10:10:38;102626.63;;;25.33
15544;BMP180;7873;52.230;12.856;2022-12-18T10:13:19;102623.38;;;25.29
15544;BMP180;7873;52.230;12.856;2022-12-18T10:16:02;102630.72;;;25.37
15544;BMP180;7873;52.230;12.856;2022-12-18T10:18:46;102617.94;;;25.39
15544;BMP180;7873;52.230;12.856;2022-12-18T10:21:25;102617.97;;;25.29
15544;BMP180;7873;52.230;12.856;2022-12-18T10:23:59;102614.69;;;25.35
15544;BMP180;7873;52.230;12.856;2022-12-18T10:26:28;102613.28;;;25.31
15544;BMP180;7873;52.230;12.856;2022-12-18T10:29:00;102613.59;;;25.28
15544;BMP180;7873;52.230;12.856;2022-12-18T10:31:29;102610.44;;;25.33
15544;BMP180;7873;52.230;12.856;2022-12-18T10:33:59;102611.16;;;25.35
15544;BMP180;7873;52.230;12.856;2022-12-18T10:36:27;102596.03;;;25.51
15544;BMP180;7873;52.230;12.856;2022-12-18T10:39:14;102600.59;;;25.77
15544;BMP180;7873;52.230;12.856;2022-12-18T10:41:44;102606.31;;;26.01
15544;BMP180;7873;52.230;12.856;2022-12-18T10:44:19;102593.88;;;26.26
15544;BMP180;7873;52.230;12.856;2022-12-18T10:46:49;102600.16;;;26.44
15544;BMP180;7873;52.230;12.856;2022-12-18T10:49:22;102597.63;;;26.60
15544;BMP180;7873;52.230;12.856;2022-12-18T10:51:49;102589.91;;;26.65
15544;BMP180;7873;52.230;12.856;2022-12-18T10:54:20;102574.50;;;26.83
15544;BMP180;7873;52.230;12.856;2022-12-18T10:56:49;102576.28;;;27.00
15544;BMP180;7873;52.230;12.856;2022-12-18T10:59:19;102582.00;;;27.14
15544;BMP180;7873;52.230;12.856;2022-12-18T11:01:50;102574.44;;;27.26
15544;BMP180;7873;52.230;12.856;2022-12-18T11:04:21;102578.22;;;27.33
15544;BMP180;7873;52.230;12.856;2022-12-18T11:06:56;102581.63;;;27.35
15544;BMP180;7873;52.230;12.856;2022-12-18T11:09:26;102576.09;;;27.44
15544;BMP180;7873;52.230;12.856;2022-12-18T11:11:58;102574.09;;;27.54
15544;BMP180;7873;52.230;12.856;2022-12-18T11:14:29;102583.53;;;27.50
15544;BMP180;7873;52.230;12.856;2022-12-18T11:16:59;102576.59;;;27.47
15544;BMP180;7873;52.230;12.856;2022-12-18T11:19:33;102581.41;;;27.61
15544;BMP180;7873;52.230;12.856;2022-12-18T11:22:19;102586.38;;;27.74
15544;BMP180;7873;52.230;12.856;2022-12-18T11:24:54;102584.38;;;27.84
15544;BMP180;7873;52.230;12.856;2022-12-18T11:27:24;102586.78;;;27.87
15544;BMP180;7873;52.230;12.856;2022-12-18T11:29:53;102586.13;;;27.93
15544;BMP180;7873;52.230;12.856;2022-12-18T11:32:38;102590.34;;;27.95
15544;BMP180;7873;52.230;12.856;2022-12-18T11:35:16;102592.22;;;27.95
15544;BMP180;7873;52.230;12.856;2022-12-18T11:37:48;102594.78;;;27.96
15544;BMP180;7873;52.230;12.856;2022-12-18T11:40:19;102594.59;;;27.98
15544;BMP180;7873;52.230;12.856;2022-12-18T11:42:50;102594.78;;;27.96
15544;BMP180;7873;52.230;12.856;2022-12-18T11:45:28;102603.53;;;27.90
15544;BMP180;7873;52.230;12.856;2022-12-18T11:48:02;102609.63;;;27.84
15544;BMP180;7873;52.230;12.856;2022-12-18T11:50:34;102609.59;;;27.76
15544;BMP180;7873;52.230;12.856;2022-12-18T11:53:10;102605.63;;;27.63
15544;BMP180;7873;52.230;12.856;2022-12-18T11:55:41;102615.22;;;27.57
15544;BMP180;7873;52.230;12.856;2022-12-18T11:58:17;102617.59;;;27.60
15544;BMP180;7873;52.230;12.856;2022-12-18T12:00:55;102617.81;;;27.67
15544;BMP180;7873;52.230;12.856;2022-12-18T12:03:38;102607.56;;;27.78
15544;BMP180;7873;52.230;12.856;2022-12-18T12:06:13;102609.97;;;27.89
15544;BMP180;7873;52.230;12.856;2022-12-18T12:08:52;102616.25;;;27.98
15544;BMP180;7873;52.230;12.856;2022-12-18T12:11:27;102624.41;;;28.06
15544;BMP180;7873;52.230;12.856;2022-12-18T12:14:08;102617.47;;;28.11
15544;BMP180;7873;52.230;12.856;2022-12-18T12:16:44;102615.63;;;28.20
15544;BMP180;7873;52.230;12.856;2022-12-18T12:19:20;102613.59;;;28.22
15544;BMP180;7873;52.230;12.856;2022-12-18T12:21:53;102604.13;;;28.26
15544;BMP180;7873;52.230;12.856;2022-12-18T12:24:33;102600.94;;;28.30
15544;BMP180;7873;52.230;12.856;2022-12-18T12:27:13;102585.53;;;28.31
15544;BMP180;7873;52.230;12.856;2022-12-18T12:29:50;102580.97;;;28.31
15544;BMP180;7873;52.230;12.856;2022-12-18T12:32:30;102590.44;;;28.35
15544;BMP180;7873;52.230;12.856;2022-12-18T12:35:10;102586.72;;;28.36
15544;BMP180;7873;52.230;12.856;2022-12-18T12:37:46;102593.50;;;28.32
15544;BMP180;7873;52.230;12.856;2022-12-18T12:40:18;102581.97;;;28.30
15544;BMP180;7873;52.230;12.856;2022-12-18T12:42:49;102572.28;;;28.28
15544;BMP180;7873;52.230;12.856;2022-12-18T12:45:38;102579.06;;;28.24
15544;BMP180;7873;52.230;12.856;2022-12-18T12:48:16;102574.31;;;28.18
15544;BMP180;7873;52.230;12.856;2022-12-18T12:50:44;102577.31;;;28.07
15544;BMP180;7873;52.230;12.856;2022-12-18T12:53:21;102581.03;;;27.98
15544;BMP180;7873;52.230;12.856;2022-12-18T12:55:48;102563.25;;;27.87
15544;BMP180;7873;52.230;12.856;2022-12-18T12:58:21;102565.59;;;27.74
15544;BMP180;7873;52.230;12.856;2022-12-18T13:00:53;102559.25;;;27.66
15544;BMP180;7873;52.230;12.856;2022-12-18T13:03:34;102558.19;;;27.59
15544;BMP180;7873;52.230;12.856;2022-12-18T13:06:08;102554.78;;;27.49
15544;BMP180;7873;52.230;12.856;2022-12-18T13:08:53;102566.91;;;27.37
15544;BMP180;7873;52.230;12.856;2022-12-18T13:11:30;102562.78;;;27.25
15544;BMP180;7873;52.230;12.856;2022-12-18T13:14:21;102562.91;;;27.16
15544;BMP180;7873;52.230;12.856;2022-12-18T13:16:49;102560.84;;;27.10
15544;BMP180;7873;52.230;12.856;2022-12-18T13:19:23;102560.75;;;27.02
15544;BMP180;7873;52.230;12.856;2022-12-18T13:21:53;102554.28;;;26.95
15544;BMP180;7873;52.230;12.856;2022-12-18T13:24:24;102545.13;;;26.88
15544;BMP180;7873;52.230;12.856;2022-12-18T13:26:51;102549.47;;;26.81
15544;BMP180;7873;52.230;12.856;2022-12-18T13:32:20;102545.63;;;26.66
15544;BMP180;7873;52.230;12.856;2022-12-18T13:34:49;102550.81;;;26.59
15544;BMP180;7873;52.230;12.856;2022-12-18T13:37:43;102559.09;;;26.58
15544;BMP180;7873;52.230;12.856;2022-12-18T13:43:27;102547.94;;;26.43
15544;BMP180;7873;52.230;12.856;2022-12-18T13:48:50;102546.19;;;26.34
15544;BMP180;7873;52.230;12.856;2022-12-18T13:51:19;102544.94;;;26.29
15544;BMP180;7873;52.230;12.856;2022-12-18T13:53:49;102554.69;;;26.22
15544;BMP180;7873;52.230;12.856;2022-12-18T13:56:17;102548.34;;;26.13
15544;BMP180;7873;52.230;12.856;2022-12-18T13:59:13;102541.88;;;26.06
15544;BMP180;7873;52.230;12.856;2022-12-18T14:01:48;102537.25;;;25.99
15544;BMP180;7873;52.230;12.856;2022-12-18T14:04:33;102527.06;;;25.93
15544;BMP180;7873;52.230;12.856;2022-12-18T14:07:04;102511.44;;;25.87
15544;BMP180;7873;52.230;12.856;2022-12-18T14:09:35;102507.66;;;25.80
15544;BMP180;7873;52.230;12.856;2022-12-18T14:12:03;102501.16;;;25.73
15544;BMP180;7873;52.230;12.856;2022-12-18T14:14:51;102505.88;;;25.71
15544;BMP180;7873;52.230;12.856;2022-12-18T14:17:18;102506.31;;;25.66
15544;BMP180;7873;52.230;12.856;2022-12-18T14:19:47;102509.47;;;25.62
15544;BMP180;7873;52.230;12.856;2022-12-18T14:22:17;102519.88;;;25.57
15544;BMP180;7873;52.230;12.856;2022-12-18T14:24:45;102513.09;;;25.53